createdAt,value
2022-09-11T00:02:10.948Z,19.42
2022-09-11T00:04:38.809Z,20.38
2022-09-11T00:07:09.572Z,21.32
2022-09-11T00:09:37.632Z,21.70
2022-09-11T00:12:07.617Z,21.03
2022-09-11T00:14:36.135Z,20.23
2022-09-11T00:17:05.219Z,19.65
2022-09-11T00:19:34.308Z,19.56
2022-09-11T00:22:06.135Z,20.61
2022-09-11T00:24:34.110Z,21.51
2022-09-11T00:27:02.380Z,21.76
2022-09-11T00:29:30.492Z,21.08
2022-09-11T00:31:58.825Z,20.26
2022-09-11T00:34:26.750Z,19.62
2022-09-11T00:36:54.863Z,19.46
2022-09-11T00:39:22.791Z,20.47
2022-09-11T00:41:51.855Z,21.39
2022-09-11T00:44:20.404Z,21.72
2022-09-11T00:46:57.212Z,21.07
2022-09-11T00:49:43.281Z,20.26
2022-09-11T00:52:17.116Z,19.65
2022-09-11T00:54:54.323Z,19.60
2022-09-11T00:57:25.586Z,20.76
2022-09-11T00:59:56.988Z,21.69
2022-09-11T01:02:27.620Z,21.95
2022-09-11T01:04:57.566Z,21.25
2022-09-11T01:07:27.268Z,20.53
2022-09-11T01:09:55.942Z,19.98
2022-09-11T01:12:36.531Z,19.57
2022-09-11T01:15:09.605Z,19.59
2022-09-11T01:17:58.231Z,20.73
2022-09-11T01:20:47.517Z,21.74
2022-09-11T01:23:25.763Z,22.00
2022-09-11T01:26:35.162Z,21.23
2022-09-11T01:29:03.290Z,20.34
2022-09-11T01:31:58.194Z,19.82
2022-09-11T01:34:46.228Z,19.85
2022-09-11T01:37:18.932Z,21.05
2022-09-11T01:39:54.003Z,21.82
2022-09-11T01:42:23.458Z,21.93
2022-09-11T01:44:59.940Z,21.14
2022-09-11T01:47:29.469Z,20.31
2022-09-11T01:50:06.347Z,19.66
2022-09-11T01:52:40.462Z,19.13
2022-09-11T01:55:17.150Z,19.01
2022-09-11T01:57:53.373Z,20.09
2022-09-11T02:00:23.941Z,21.08
2022-09-11T02:03:58.758Z,21.44
2022-09-11T02:07:16.610Z,20.39
2022-09-11T02:10:03.038Z,19.68
2022-09-11T02:12:40.977Z,19.56
2022-09-11T02:15:09.983Z,20.68
2022-09-11T02:17:54.744Z,21.57
2022-09-11T02:20:28.931Z,21.75
2022-09-11T02:22:59.001Z,20.99
2022-09-11T02:25:28.463Z,20.22
2022-09-11T02:27:57.762Z,19.63
2022-09-11T02:30:25.695Z,19.20
2022-09-11T02:37:31.577Z,20.87
2022-09-11T02:40:32.259Z,21.61
2022-09-11T02:43:06.453Z,21.41
2022-09-11T02:45:49.253Z,20.57
2022-09-11T02:48:37.090Z,19.83
2022-09-11T02:51:15.789Z,19.31
2022-09-11T02:54:08.342Z,19.24
2022-09-11T02:57:04.980Z,20.48
2022-09-11T02:59:38.631Z,21.47
2022-09-11T03:02:10.754Z,21.70
2022-09-11T03:04:39.003Z,20.87
2022-09-11T03:07:06.857Z,19.99
2022-09-11T03:09:35.080Z,19.33
2022-09-11T03:12:10.355Z,19.17
2022-09-11T03:14:38.643Z,20.03
2022-09-11T03:17:06.632Z,20.69
2022-09-11T03:19:36.702Z,21.10
2022-09-11T03:22:04.751Z,21.20
2022-09-11T03:24:34.273Z,20.55
2022-09-11T03:27:02.344Z,19.82
2022-09-11T03:29:32.971Z,19.26
2022-09-11T03:32:01.403Z,19.07
2022-09-11T03:34:33.022Z,19.90
2022-09-11T03:37:02.268Z,20.61
2022-09-11T03:39:30.727Z,20.95
2022-09-11T03:42:01.242Z,21.08
2022-09-11T03:44:30.263Z,20.88
2022-09-11T03:46:58.196Z,20.11
2022-09-11T03:49:30.246Z,19.37
2022-09-11T03:51:58.054Z,19.10
2022-09-11T03:54:32.878Z,19.94
2022-09-11T03:57:01.626Z,20.82
2022-09-11T03:59:31.314Z,21.24
2022-09-11T04:01:59.467Z,21.54
2022-09-11T04:04:28.274Z,21.28
2022-09-11T04:06:59.366Z,20.48
2022-09-11T04:09:30.581Z,19.75
2022-09-11T04:11:59.782Z,19.56
2022-09-11T04:14:29.158Z,20.39
2022-09-11T04:16:59.710Z,21.11
2022-09-11T04:19:29.941Z,21.50
2022-09-11T04:22:03.167Z,21.78
2022-09-11T04:24:35.342Z,21.76
2022-09-11T04:27:03.668Z,21.01
2022-09-11T04:29:34.168Z,20.22
2022-09-11T04:32:02.689Z,19.60
2022-09-11T04:34:33.433Z,19.42
2022-09-11T04:37:01.642Z,20.30
2022-09-11T04:39:30.783Z,21.02
2022-09-11T04:41:59.214Z,21.54
2022-09-11T04:44:28.499Z,21.70
2022-09-11T04:46:56.838Z,20.97
2022-09-11T04:49:25.325Z,20.16
2022-09-11T04:51:53.387Z,19.57
2022-09-11T04:54:26.498Z,19.49
2022-09-11T04:56:55.055Z,20.47
2022-09-11T04:59:23.897Z,21.12
2022-09-11T05:02:14.101Z,21.56
2022-09-11T05:04:47.128Z,21.70
2022-09-11T05:07:15.627Z,21.07
2022-09-11T05:09:48.856Z,20.32
2022-09-11T05:12:17.867Z,19.74
2022-09-11T05:14:48.205Z,19.58
2022-09-11T05:17:16.510Z,20.48
2022-09-11T05:19:47.448Z,21.31
2022-09-11T05:22:15.904Z,22.00
2022-09-11T05:24:49.301Z,22.22
2022-09-11T05:27:17.776Z,21.43
2022-09-11T05:29:46.567Z,20.62
2022-09-11T05:32:15.919Z,19.97
2022-09-11T05:34:46.678Z,19.74
2022-09-11T05:37:16.472Z,20.60
2022-09-11T05:39:52.566Z,21.48
2022-09-11T05:42:25.043Z,21.96
2022-09-11T05:44:55.157Z,22.00
2022-09-11T05:47:24.444Z,21.21
2022-09-11T05:49:53.449Z,20.38
2022-09-11T05:52:21.446Z,19.73
2022-09-11T05:54:53.731Z,19.54
2022-09-11T05:57:22.587Z,20.53
2022-09-11T05:59:52.027Z,21.47
2022-09-11T06:02:20.948Z,21.91
2022-09-11T06:04:59.013Z,21.32
2022-09-11T06:07:27.091Z,20.36
2022-09-11T06:09:59.703Z,19.66
2022-09-11T06:12:33.782Z,19.42
2022-09-11T06:15:03.429Z,20.28
2022-09-11T06:17:31.499Z,21.15
2022-09-11T06:20:01.262Z,21.71
2022-09-11T06:22:29.946Z,21.87
2022-09-11T06:24:59.789Z,21.16
2022-09-11T06:27:28.365Z,20.37
2022-09-11T06:29:56.389Z,19.92
2022-09-11T06:32:24.310Z,20.66
2022-09-11T06:34:54.576Z,21.49
2022-09-11T06:37:23.961Z,21.69
2022-09-11T06:39:51.984Z,20.93
2022-09-11T06:42:26.279Z,20.14
2022-09-11T06:44:54.572Z,19.83
2022-09-11T06:47:22.823Z,20.69
2022-09-11T06:49:51.006Z,21.51
2022-09-11T06:52:39.169Z,21.71
2022-09-11T06:55:16.620Z,20.90
2022-09-11T06:57:51.334Z,20.00
2022-09-11T07:00:24.192Z,19.70
2022-09-11T07:02:53.250Z,20.65
2022-09-11T07:05:27.325Z,21.48
2022-09-11T07:07:57.485Z,22.02
2022-09-11T07:11:02.478Z,22.16
2022-09-11T07:13:38.517Z,21.08
2022-09-11T07:16:17.735Z,20.26
2022-09-11T07:18:48.914Z,20.02
2022-09-11T07:21:23.232Z,20.65
2022-09-11T07:23:57.661Z,21.18
2022-09-11T07:26:32.821Z,21.52
2022-09-11T07:29:07.282Z,21.76
2022-09-11T07:31:43.159Z,21.39
2022-09-11T07:34:11.805Z,20.64
2022-09-11T07:36:42.677Z,20.19
2022-09-11T07:39:20.731Z,20.79
2022-09-11T07:41:54.115Z,21.53
2022-09-11T07:44:29.016Z,22.00
2022-09-11T07:47:02.616Z,22.09
2022-09-11T07:49:32.633Z,21.36
2022-09-11T07:52:03.776Z,20.67
2022-09-11T07:54:39.826Z,20.30
2022-09-11T07:57:12.712Z,20.94
2022-09-11T07:59:46.625Z,21.59
2022-09-11T08:02:18.294Z,22.03
2022-09-11T08:04:46.242Z,22.16
2022-09-11T08:07:14.434Z,21.54
2022-09-11T08:09:43.598Z,20.82
2022-09-11T08:12:12.121Z,20.44
2022-09-11T08:14:40.713Z,21.05
2022-09-11T08:17:12.437Z,21.88
2022-09-11T08:19:40.812Z,22.32
2022-09-11T08:22:09.046Z,21.99
2022-09-11T08:24:45.657Z,21.29
2022-09-11T08:27:19.479Z,20.71
2022-09-11T08:29:47.858Z,20.49
2022-09-11T08:32:16.634Z,21.13
2022-09-11T08:34:45.627Z,21.83
2022-09-11T08:37:15.496Z,22.38
2022-09-11T08:39:43.783Z,22.56
2022-09-11T08:42:18.997Z,22.01
2022-09-11T08:44:57.493Z,21.42
2022-09-11T08:47:45.821Z,20.87
2022-09-11T08:50:20.533Z,20.75
2022-09-11T08:52:51.151Z,21.81
2022-09-11T08:56:02.697Z,22.85
2022-09-11T08:58:58.598Z,23.16
2022-09-11T09:01:37.298Z,22.37
2022-09-11T09:04:34.349Z,21.82
2022-09-11T09:07:25.188Z,21.41
2022-09-11T09:10:21.899Z,21.14
2022-09-11T09:13:10.997Z,21.40
2022-09-11T09:15:46.271Z,22.43
2022-09-11T09:18:28.463Z,22.98
2022-09-11T09:22:05.704Z,22.61
2022-09-11T09:24:50.717Z,21.86
2022-09-11T09:27:25.079Z,21.43
2022-09-11T09:30:05.854Z,21.16
2022-09-11T09:32:47.775Z,21.24
2022-09-11T09:35:26.764Z,22.32
2022-09-11T09:39:03.496Z,22.88
2022-09-11T09:41:52.746Z,22.12
2022-09-11T09:45:15.568Z,21.54
2022-09-11T09:47:49.528Z,21.15
2022-09-11T09:50:40.415Z,21.15
2022-09-11T09:53:43.481Z,22.06
2022-09-11T09:56:20.556Z,22.95
2022-09-11T09:59:13.246Z,22.77
2022-09-11T10:02:14.040Z,22.23
2022-09-11T10:04:43.338Z,21.86
2022-09-11T10:07:14.345Z,21.73
2022-09-11T10:09:50.908Z,21.66
2022-09-11T10:12:28.203Z,21.54
2022-09-11T10:14:59.179Z,21.36
2022-09-11T10:17:50.398Z,21.11
2022-09-11T10:20:29.256Z,20.83
2022-09-11T10:23:24.643Z,21.09
2022-09-11T10:25:55.255Z,22.36
2022-09-11T10:28:32.232Z,23.01
2022-09-11T10:31:05.735Z,22.60
2022-09-11T10:33:46.827Z,22.05
2022-09-11T10:36:22.988Z,21.63
2022-09-11T10:38:55.657Z,21.34
2022-09-11T10:41:28.543Z,21.06
2022-09-11T10:44:14.856Z,20.79
2022-09-11T10:46:46.650Z,20.91
2022-09-11T10:49:23.572Z,21.90
2022-09-11T10:52:10.237Z,22.53
2022-09-11T10:54:54.371Z,22.00
2022-09-11T10:57:30.180Z,21.33
2022-09-11T11:00:09.473Z,20.86
2022-09-11T11:02:54.580Z,20.54
2022-09-11T11:05:56.291Z,20.78
2022-09-11T11:09:06.595Z,22.38
2022-09-11T11:11:52.185Z,23.23
2022-09-11T11:14:39.003Z,22.87
2022-09-11T11:17:11.257Z,22.52
2022-09-11T11:20:10.876Z,22.28
2022-09-11T11:23:05.601Z,21.95
2022-09-11T11:26:07.636Z,21.63
2022-09-11T11:28:51.993Z,21.30
2022-09-11T11:31:44.534Z,21.04
2022-09-11T11:34:38.608Z,20.84
2022-09-11T11:37:19.023Z,20.63
2022-09-11T11:39:49.334Z,21.07
2022-09-11T11:42:31.527Z,22.19
2022-09-11T11:45:12.917Z,22.71
2022-09-11T11:47:54.199Z,22.09
2022-09-11T11:50:33.717Z,21.41
2022-09-11T11:53:18.458Z,20.91
2022-09-11T11:56:29.996Z,20.51
2022-09-11T11:59:31.475Z,20.70
2022-09-11T12:02:11.910Z,21.89
2022-09-11T12:05:11.262Z,22.51
2022-09-11T12:07:45.096Z,22.29
2022-09-11T12:10:34.557Z,21.57
2022-09-11T12:13:09.518Z,20.84
2022-09-11T12:15:40.065Z,20.66
2022-09-11T12:18:18.163Z,21.50
2022-09-11T12:20:55.537Z,22.32
2022-09-11T12:23:36.874Z,22.87
2022-09-11T12:26:22.777Z,22.87
2022-09-11T12:29:17.048Z,22.05
2022-09-11T12:31:51.342Z,21.40
2022-09-11T12:34:33.935Z,21.26
2022-09-11T12:37:11.926Z,22.21
2022-09-11T12:39:54.861Z,23.05
2022-09-11T12:42:26.411Z,23.27
2022-09-11T12:44:59.773Z,22.67
2022-09-11T12:47:35.349Z,22.08
2022-09-11T12:50:06.786Z,21.56
2022-09-11T12:52:46.958Z,21.50
2022-09-11T12:55:35.698Z,22.44
2022-09-11T12:58:34.398Z,23.20
2022-09-11T13:01:29.371Z,22.85
2022-09-11T13:04:17.447Z,22.29
2022-09-11T13:06:49.119Z,22.15
2022-09-11T13:09:30.329Z,22.23
2022-09-11T13:12:19.386Z,22.46
2022-09-11T13:14:56.300Z,22.67
2022-09-11T13:17:46.974Z,22.77
2022-09-11T13:20:57.200Z,22.77
2022-09-11T13:23:31.656Z,22.77
2022-09-11T13:26:05.458Z,22.83
2022-09-11T13:28:47.439Z,23.06
2022-09-11T13:31:39.120Z,23.32
2022-09-11T13:34:37.149Z,23.51
2022-09-11T13:37:58.955Z,23.53
2022-09-11T13:40:45.559Z,23.44
2022-09-11T13:43:31.668Z,23.36
2022-09-11T13:46:17.044Z,23.23
2022-09-11T13:48:51.067Z,23.10
2022-09-11T13:51:42.706Z,23.01
2022-09-11T13:54:33.767Z,22.99
2022-09-11T13:57:04.700Z,23.10
2022-09-11T13:59:47.540Z,23.18
2022-09-11T14:02:35.172Z,23.16
2022-09-11T14:05:09.953Z,23.03
2022-09-11T14:08:01.234Z,22.88
2022-09-11T14:10:44.603Z,22.65
2022-09-11T14:13:47.458Z,22.37
2022-09-11T14:16:37.614Z,22.07
2022-09-11T14:19:21.124Z,21.84
2022-09-11T14:21:53.262Z,21.69
2022-09-11T14:24:33.320Z,21.65
2022-09-11T14:27:05.043Z,21.69
2022-09-11T14:29:33.849Z,21.75
2022-09-11T14:32:34.561Z,21.84
2022-09-11T14:35:16.117Z,22.29
2022-09-11T14:37:46.225Z,22.46
2022-09-11T14:40:16.539Z,22.35
2022-09-11T14:42:47.653Z,22.12
2022-09-11T14:45:26.566Z,21.86
2022-09-11T14:47:55.826Z,21.54
2022-09-11T14:50:27.602Z,21.24
2022-09-11T14:52:56.496Z,20.95
2022-09-11T14:55:29.219Z,20.66
2022-09-11T14:57:57.360Z,20.40
2022-09-11T15:00:27.392Z,20.46
2022-09-11T15:02:57.202Z,21.51
2022-09-11T15:05:27.506Z,22.29
2022-09-11T15:07:56.117Z,21.98
2022-09-11T15:10:27.938Z,21.43
2022-09-11T15:12:57.209Z,20.98
2022-09-11T15:15:29.294Z,20.64
2022-09-11T15:17:59.581Z,20.66
2022-09-11T15:20:31.427Z,21.72
2022-09-11T15:23:00.834Z,22.68
2022-09-11T15:25:35.000Z,23.05
2022-09-11T15:28:12.617Z,22.56
2022-09-11T15:30:48.958Z,21.91
2022-09-11T15:33:17.253Z,21.41
2022-09-11T15:35:47.821Z,21.07
2022-09-11T15:38:17.830Z,20.78
2022-09-11T15:40:49.036Z,20.79
2022-09-11T15:43:21.391Z,21.78
2022-09-11T15:45:58.311Z,22.65
2022-09-11T15:48:32.901Z,22.62
2022-09-11T15:51:08.302Z,21.94
2022-09-11T15:53:43.158Z,21.36
2022-09-11T15:56:15.964Z,20.92
2022-09-11T15:58:53.137Z,20.54
2022-09-11T16:01:30.165Z,20.46
2022-09-11T16:04:05.365Z,21.43
2022-09-11T16:06:39.053Z,22.31
2022-09-11T16:09:27.915Z,22.62
2022-09-11T16:11:56.812Z,22.00
2022-09-11T16:14:27.478Z,21.39
2022-09-11T16:17:00.842Z,20.94
2022-09-11T16:19:31.640Z,20.63
2022-09-11T16:22:04.990Z,20.62
2022-09-11T16:24:38.153Z,21.63
2022-09-11T16:27:11.364Z,22.21
2022-09-11T16:30:20.228Z,21.75
2022-09-11T16:32:38.631Z,21.04
2022-09-11T16:35:08.957Z,20.58
2022-09-11T16:37:40.769Z,20.21
2022-09-11T16:40:15.137Z,20.19
2022-09-11T16:42:45.007Z,21.17
2022-09-11T16:45:15.888Z,22.01
2022-09-11T16:47:44.856Z,22.36
2022-09-11T16:50:16.926Z,21.80
2022-09-11T16:52:45.723Z,21.16
2022-09-11T16:55:17.707Z,20.66
2022-09-11T16:57:52.323Z,20.28
2022-09-11T17:00:24.474Z,19.99
2022-09-11T17:02:58.878Z,19.76
2022-09-11T17:05:27.471Z,19.63
2022-09-11T17:07:59.072Z,20.30
2022-09-11T17:13:47.561Z,22.03
2022-09-11T17:24:18.097Z,21.68
2022-09-11T17:26:48.191Z,21.04
2022-09-11T17:29:20.863Z,20.56
2022-09-11T17:32:05.055Z,20.19
2022-09-11T17:34:41.645Z,20.62
2022-09-11T17:37:11.572Z,21.52
2022-09-11T17:39:47.157Z,22.17
2022-09-11T17:42:19.242Z,22.57
2022-09-11T17:44:48.835Z,22.83
2022-09-11T17:47:17.012Z,22.67
2022-09-11T17:49:45.745Z,21.97
2022-09-11T17:52:22.172Z,21.30
2022-09-11T17:54:53.818Z,20.78
2022-09-11T17:57:26.239Z,20.35
2022-09-11T17:59:59.421Z,20.01
2022-09-11T18:02:28.297Z,19.75
2022-09-11T18:05:04.274Z,19.86
2022-09-11T18:07:32.997Z,20.82
2022-09-11T18:10:07.416Z,21.62
2022-09-11T18:12:43.781Z,22.20
2022-09-11T18:15:14.355Z,22.57
2022-09-11T18:17:44.970Z,22.48
2022-09-11T18:20:13.054Z,21.77
2022-09-11T18:22:45.709Z,21.10
2022-09-11T18:25:15.028Z,20.61
2022-09-11T18:27:45.228Z,20.21
2022-09-11T18:30:19.901Z,19.86
2022-09-11T18:32:51.296Z,19.57
2022-09-11T18:35:23.858Z,19.36
2022-09-11T18:37:52.461Z,20.00
2022-09-11T18:40:20.952Z,21.00
2022-09-11T18:42:49.315Z,21.64
2022-09-11T18:45:18.025Z,22.05
2022-09-11T18:47:55.314Z,22.33
2022-09-11T18:50:26.899Z,22.47
2022-09-11T18:52:56.667Z,21.90
2022-09-11T18:55:31.313Z,21.21
2022-09-11T18:58:00.988Z,20.66
2022-09-11T19:00:41.586Z,20.26
2022-09-11T19:03:10.977Z,19.90
2022-09-11T19:05:39.409Z,19.62
2022-09-11T19:08:08.301Z,19.38
2022-09-11T19:10:37.301Z,19.20
2022-09-11T19:13:05.463Z,19.76
2022-09-11T19:15:33.776Z,20.75
2022-09-11T19:18:05.406Z,21.45
2022-09-11T19:20:35.721Z,21.96
2022-09-11T19:23:06.688Z,22.34
2022-09-11T19:25:35.587Z,22.46
2022-09-11T19:28:04.831Z,21.90
2022-09-11T19:30:33.039Z,21.23
2022-09-11T19:33:03.553Z,20.71
2022-09-11T19:35:32.958Z,20.27
2022-09-11T19:38:01.956Z,19.89
2022-09-11T19:40:36.305Z,19.57
2022-09-11T19:43:22.910Z,19.58
2022-09-11T19:46:19.546Z,20.55
2022-09-11T19:48:48.603Z,21.42
2022-09-11T19:51:40.350Z,21.88
2022-09-11T19:54:23.332Z,22.30
2022-09-11T19:57:39.765Z,22.32
2022-09-11T20:00:42.615Z,21.48
2022-09-11T20:03:38.116Z,20.71
2022-09-11T20:06:10.854Z,20.17
2022-09-11T20:08:43.429Z,19.80
2022-09-11T20:11:41.955Z,19.48
2022-09-11T20:14:19.400Z,19.14
2022-09-11T20:17:00.551Z,19.10
2022-09-11T20:23:21.118Z,21.15
2022-09-11T20:26:19.388Z,21.66
2022-09-11T20:44:36.844Z,19.86
2022-09-11T20:47:12.661Z,19.52
2022-09-11T20:49:40.606Z,19.98
2022-09-11T20:52:11.357Z,20.87
2022-09-11T20:54:44.218Z,21.50
2022-09-11T20:57:12.552Z,21.81
2022-09-11T20:59:40.904Z,21.99
2022-09-11T21:02:10.168Z,22.17
2022-09-11T21:04:39.271Z,22.00
2022-09-11T21:07:07.233Z,21.21
2022-09-11T21:09:35.524Z,20.46
2022-09-11T21:12:04.934Z,19.87
2022-09-11T21:14:33.005Z,19.41
2022-09-11T21:17:03.455Z,19.50
2022-09-11T21:19:32.154Z,20.30
2022-09-11T21:22:01.461Z,20.96
2022-09-11T21:24:29.333Z,21.39
2022-09-11T21:26:59.447Z,21.78
2022-09-11T21:29:27.332Z,22.00
2022-09-11T21:31:56.766Z,21.60
2022-09-11T21:34:24.773Z,20.78
2022-09-11T21:36:52.845Z,20.06
2022-09-11T21:39:22.235Z,19.51
2022-09-11T21:41:50.377Z,19.07
2022-09-11T21:44:18.373Z,18.77
2022-09-11T21:46:46.480Z,19.34
2022-09-11T21:49:14.327Z,20.28
2022-09-11T21:51:46.560Z,20.94
2022-09-11T21:54:14.509Z,21.30
2022-09-11T21:56:42.904Z,21.53
2022-09-11T21:59:12.221Z,21.70
2022-09-11T22:01:41.626Z,21.20
2022-09-11T22:04:11.314Z,20.37
2022-09-11T22:06:39.211Z,19.68
2022-09-11T22:09:07.034Z,19.17
2022-09-11T22:11:37.976Z,18.77
2022-09-11T22:14:07.785Z,18.56
2022-09-11T22:16:35.710Z,19.24
2022-09-11T22:19:07.319Z,20.09
2022-09-11T22:21:35.098Z,20.57
2022-09-11T22:24:04.244Z,20.84
2022-09-11T22:26:33.883Z,21.00
2022-09-11T22:29:02.101Z,21.12
2022-09-11T22:31:30.159Z,21.46
2022-09-11T22:33:58.208Z,21.78
2022-09-11T22:36:27.899Z,21.91
2022-09-11T22:38:55.913Z,21.33
2022-09-11T22:41:23.939Z,20.55
2022-09-11T22:43:51.883Z,19.92
2022-09-11T22:46:23.927Z,19.44
2022-09-11T22:48:52.769Z,19.02
2022-09-11T22:51:20.758Z,18.72
2022-09-11T22:53:48.589Z,19.28
2022-09-11T22:56:17.244Z,20.41
2022-09-11T22:58:45.797Z,21.13
2022-09-11T23:01:21.721Z,21.49
2022-09-11T23:03:53.122Z,21.73
2022-09-11T23:06:41.616Z,21.52
2022-09-11T23:09:11.910Z,20.58
2022-09-11T23:11:40.103Z,19.85
2022-09-11T23:14:13.282Z,19.28
2022-09-11T23:16:44.643Z,18.81
2022-09-11T23:19:14.043Z,18.42
2022-09-11T23:21:42.019Z,18.10
2022-09-11T23:24:13.466Z,18.41
2022-09-11T23:26:41.740Z,19.30
2022-09-11T23:29:11.841Z,19.98
2022-09-11T23:31:40.111Z,20.40
2022-09-11T23:34:11.378Z,20.73
2022-09-11T23:36:39.254Z,20.98
2022-09-11T23:39:07.139Z,21.20
2022-09-11T23:41:36.695Z,21.42
2022-09-11T23:44:04.690Z,21.36
2022-09-11T23:46:32.633Z,20.66
2022-09-11T23:49:01.936Z,19.93
2022-09-11T23:51:30.034Z,19.33
2022-09-11T23:53:58.540Z,18.87
2022-09-11T23:56:27.815Z,18.46
2022-09-11T23:58:56.299Z,18.10
